createdAt,value
2019-06-07T00:00:40.648Z,11.50
2019-06-07T00:03:22.087Z,11.30
2019-06-07T00:05:43.027Z,10.35
2019-06-07T00:08:22.679Z,10.25
2019-06-07T00:10:45.239Z,9.70
2019-06-07T00:13:18.783Z,10.45
2019-06-07T00:15:47.342Z,10.38
2019-06-07T00:18:25.221Z,10.88
2019-06-07T00:20:49.435Z,11.30
2019-06-07T00:23:22.452Z,9.78
2019-06-07T00:25:51.544Z,10.82
2019-06-07T00:28:21.859Z,10.98
2019-06-07T00:30:52.819Z,11.48
2019-06-07T00:33:24.830Z,11.22
2019-06-07T00:35:55.396Z,10.00
2019-06-07T00:38:25.614Z,10.80
2019-06-07T00:40:55.801Z,11.30
2019-06-07T00:43:28.426Z,10.75
2019-06-07T00:45:57.904Z,10.75
2019-06-07T00:48:32.605Z,10.25
2019-06-07T00:51:00.001Z,10.98
2019-06-07T00:53:32.563Z,11.45
2019-06-07T00:56:02.104Z,10.43
2019-06-07T00:58:32.305Z,10.63
2019-06-07T01:01:02.550Z,11.78
2019-06-07T01:03:33.518Z,11.22
2019-06-07T01:06:24.906Z,11.70
2019-06-07T01:08:55.879Z,11.70
2019-06-07T01:11:26.439Z,11.83
2019-06-07T01:13:57.009Z,11.63
2019-06-07T01:16:27.215Z,12.33
2019-06-07T01:18:57.554Z,11.95
2019-06-07T01:21:29.600Z,12.88
2019-06-07T01:24:11.666Z,12.70
2019-06-07T01:26:31.533Z,11.65
2019-06-07T01:29:01.738Z,11.55
2019-06-07T01:31:32.133Z,11.55
2019-06-07T01:34:02.885Z,12.60
2019-06-07T01:36:33.145Z,11.35
2019-06-07T01:39:04.092Z,11.63
2019-06-07T01:41:34.770Z,13.05
2019-06-07T01:44:04.962Z,12.93
2019-06-07T01:46:35.161Z,13.53
2019-06-07T01:49:05.355Z,12.93
2019-06-07T01:51:35.638Z,13.22
2019-06-07T01:54:49.149Z,13.32
2019-06-07T01:56:37.798Z,12.93
2019-06-07T01:59:08.053Z,18.35
2019-06-07T02:01:38.258Z,19.05
2019-06-07T02:04:08.528Z,16.97
2019-06-07T02:06:41.379Z,14.15
2019-06-07T02:09:11.583Z,13.03
2019-06-07T02:11:41.768Z,13.25
2019-06-07T02:14:11.981Z,13.05
2019-06-07T02:16:42.178Z,13.32
2019-06-07T02:19:12.457Z,13.28
2019-06-07T02:21:42.656Z,13.20
2019-06-07T02:24:12.853Z,13.53
2019-06-07T02:26:43.052Z,21.05
2019-06-07T02:29:13.328Z,19.42
2019-06-07T02:31:43.534Z,21.27
2019-06-07T02:34:13.730Z,22.60
2019-06-07T02:36:44.020Z,21.42
2019-06-07T02:39:14.230Z,24.77
2019-06-07T02:41:44.527Z,24.18
2019-06-07T02:44:14.767Z,22.05
2019-06-07T02:46:49.349Z,21.97
2019-06-07T02:49:18.420Z,22.30
2019-06-07T02:51:48.705Z,23.75
2019-06-07T02:54:18.937Z,24.98
2019-06-07T02:56:58.153Z,24.82
2019-06-07T02:59:48.453Z,25.20
2019-06-07T03:01:53.098Z,25.55
2019-06-07T03:04:26.431Z,26.42
2019-06-07T03:06:56.746Z,24.77
2019-06-07T03:09:30.835Z,24.77
2019-06-07T03:11:58.980Z,24.52
2019-06-07T03:14:32.481Z,24.75
2019-06-07T03:17:18.694Z,22.90
2019-06-07T03:19:50.537Z,21.27
2019-06-07T03:22:20.767Z,22.60
2019-06-07T03:24:50.963Z,20.08
2019-06-07T03:27:35.032Z,17.37
2019-06-07T03:29:54.343Z,16.25
2019-06-07T03:32:24.582Z,16.97
2019-06-07T03:34:54.915Z,16.60
2019-06-07T03:37:27.322Z,16.77
2019-06-07T03:39:57.099Z,15.53
2019-06-07T03:42:27.318Z,17.70
2019-06-07T03:44:57.497Z,24.07
2019-06-07T03:47:30.632Z,22.95
2019-06-07T03:49:59.675Z,24.07
2019-06-07T03:52:30.202Z,22.82
2019-06-07T03:55:01.815Z,21.52
2019-06-07T03:58:23.807Z,22.50
2019-06-07T04:00:07.183Z,21.20
2019-06-07T04:02:38.619Z,21.25
2019-06-07T04:05:09.353Z,20.95
2019-06-07T04:07:44.169Z,20.77
2019-06-07T04:10:11.858Z,21.17
2019-06-07T04:12:43.864Z,20.03
2019-06-07T04:15:13.981Z,20.25
2019-06-07T04:18:00.764Z,19.00
2019-06-07T04:20:16.094Z,19.60
2019-06-07T04:22:46.306Z,18.20
2019-06-07T04:25:16.574Z,17.65
2019-06-07T04:27:46.812Z,14.90
2019-06-07T04:30:20.318Z,14.63
2019-06-07T04:32:50.506Z,12.15
2019-06-07T04:35:30.975Z,11.48
2019-06-07T04:38:02.717Z,10.50
2019-06-07T04:40:36.866Z,10.82
2019-06-07T04:43:07.429Z,10.60
2019-06-07T04:45:46.260Z,10.48
2019-06-07T04:48:09.600Z,10.88
2019-06-07T04:50:43.452Z,10.88
2019-06-07T04:53:11.790Z,10.13
2019-06-07T04:55:42.067Z,9.60
2019-06-07T04:58:12.337Z,10.23
2019-06-07T05:01:03.075Z,8.93
2019-06-07T05:03:14.451Z,10.23
2019-06-07T05:05:44.650Z,11.00
2019-06-07T05:08:27.642Z,10.88
2019-06-07T05:10:46.879Z,10.60
2019-06-07T05:13:21.341Z,9.63
2019-06-07T05:15:54.150Z,9.03
2019-06-07T05:18:24.355Z,8.45
2019-06-07T05:20:55.070Z,8.60
2019-06-07T05:23:59.898Z,8.20
2019-06-07T05:25:57.334Z,7.85
2019-06-07T05:28:27.656Z,8.40
2019-06-07T05:31:04.613Z,8.23
2019-06-07T05:33:31.162Z,8.40
2019-06-07T05:36:01.658Z,7.72
2019-06-07T05:38:33.374Z,8.60
2019-06-07T05:41:03.898Z,8.33
2019-06-07T05:43:35.126Z,8.33
2019-06-07T05:46:23.542Z,8.03
2019-06-07T05:48:53.776Z,8.00
2019-06-07T05:51:24.019Z,7.90
2019-06-07T05:53:54.234Z,9.30
2019-06-07T05:56:24.410Z,8.23
2019-06-07T05:58:54.695Z,9.28
2019-06-07T06:01:43.119Z,9.25
2019-06-07T06:03:56.862Z,9.03
2019-06-07T06:06:27.082Z,9.33
2019-06-07T06:09:12.858Z,9.48
2019-06-07T06:11:43.043Z,9.10
2019-06-07T06:14:07.455Z,10.03
2019-06-07T06:16:34.590Z,9.68
2019-06-07T06:19:04.971Z,10.78
2019-06-07T06:21:36.184Z,10.60
2019-06-07T06:26:38.433Z,9.95
2019-06-07T06:29:07.668Z,8.93
2019-06-07T06:31:41.121Z,8.90
2019-06-07T06:34:09.839Z,9.08
2019-06-07T06:36:43.888Z,8.75
2019-06-07T06:39:11.958Z,8.60
2019-06-07T06:41:53.160Z,8.28
2019-06-07T06:44:14.014Z,7.28
2019-06-07T06:46:58.106Z,8.03
2019-06-07T06:49:26.319Z,7.55
2019-06-07T06:51:56.523Z,7.65
2019-06-07T06:54:40.284Z,8.23
2019-06-07T06:57:18.242Z,7.15
2019-06-07T06:59:39.657Z,7.10
2019-06-07T07:02:02.650Z,7.20
2019-06-07T07:04:32.926Z,7.17
2019-06-07T07:07:03.133Z,8.18
2019-06-07T07:09:33.323Z,7.65
2019-06-07T07:12:12.057Z,7.75
2019-06-07T07:14:35.409Z,7.72
2019-06-07T07:17:46.875Z,7.28
2019-06-07T07:19:57.804Z,6.53
2019-06-07T07:22:27.997Z,6.80
2019-06-07T07:24:58.252Z,6.30
2019-06-07T07:27:28.522Z,6.10
2019-06-07T07:30:34.767Z,6.60
2019-06-07T07:32:31.039Z,6.95
2019-06-07T07:35:01.330Z,7.37
2019-06-07T07:37:31.519Z,6.53
2019-06-07T07:40:34.915Z,6.67
2019-06-07T07:42:33.671Z,6.55
2019-06-07T07:45:05.199Z,6.67
2019-06-07T07:47:35.405Z,6.58
2019-06-07T07:50:06.921Z,6.35
2019-06-07T07:52:37.132Z,5.95
2019-06-07T07:55:07.356Z,5.95
2019-06-07T07:57:38.563Z,6.67
2019-06-07T08:00:48.730Z,5.47
2019-06-07T08:02:41.595Z,5.15
2019-06-07T08:05:22.584Z,4.62
2019-06-07T08:07:43.735Z,5.12
2019-06-07T08:10:13.955Z,4.55
2019-06-07T08:13:08.902Z,4.33
2019-06-07T08:15:16.178Z,4.50
2019-06-07T08:17:47.362Z,4.87
2019-06-07T08:20:18.795Z,4.28
2019-06-07T08:22:49.975Z,4.97
2019-06-07T08:25:21.515Z,4.22
2019-06-07T08:27:52.477Z,4.62
2019-06-07T08:30:47.823Z,4.28
2019-06-07T08:33:06.015Z,4.58
2019-06-07T08:38:26.010Z,4.00
2019-06-07T08:40:31.293Z,3.70
2019-06-07T08:43:13.059Z,3.92
2019-06-07T08:45:33.388Z,3.55
2019-06-07T08:48:09.456Z,3.75
2019-06-07T08:50:35.607Z,4.25
2019-06-07T08:53:12.210Z,4.03
2019-06-07T08:55:37.747Z,4.17
2019-06-07T09:07:01.156Z,4.90
2019-06-07T09:12:26.283Z,4.72
2019-06-07T09:15:06.766Z,4.45
2019-06-07T09:17:29.422Z,4.03
2019-06-07T09:20:07.239Z,4.30
2019-06-07T09:22:31.482Z,4.03
2019-06-07T09:25:10.477Z,4.37
2019-06-07T09:27:33.706Z,3.83
2019-06-07T09:30:12.627Z,4.35
2019-06-07T09:32:39.063Z,4.30
2019-06-07T09:35:16.835Z,4.30
2019-06-07T09:38:07.808Z,3.30
2019-06-07T09:40:25.067Z,3.50
2019-06-07T09:42:45.075Z,3.27
2019-06-07T09:45:16.199Z,3.27
2019-06-07T09:47:46.398Z,3.35
2019-06-07T09:52:57.778Z,3.35
2019-06-07T09:55:24.322Z,3.10
2019-06-07T09:57:50.755Z,2.90
2019-06-07T10:00:40.051Z,3.33
2019-06-07T10:02:52.844Z,2.60
2019-06-07T10:05:35.986Z,2.70
2019-06-07T10:08:25.876Z,3.72
2019-06-07T10:10:38.071Z,3.08
2019-06-07T10:13:08.890Z,3.00
2019-06-07T10:15:40.434Z,3.05
2019-06-07T10:18:10.766Z,2.90
2019-06-07T10:20:40.983Z,2.77
2019-06-07T10:23:11.190Z,3.00
2019-06-07T10:25:41.366Z,2.70
2019-06-07T10:28:11.561Z,2.75
2019-06-07T10:30:41.752Z,3.00
2019-06-07T10:33:11.976Z,2.90
2019-06-07T10:36:00.266Z,3.27
2019-06-07T10:38:31.495Z,2.95
2019-06-07T10:41:02.774Z,3.00
2019-06-07T10:43:33.383Z,2.72
2019-06-07T10:46:03.737Z,2.77
2019-06-07T10:48:33.925Z,2.80
2019-06-07T10:51:04.252Z,2.85
2019-06-07T10:53:34.693Z,3.08
2019-06-07T10:56:04.941Z,2.95
2019-06-07T10:58:35.210Z,3.10
2019-06-07T11:01:05.387Z,3.10
2019-06-07T11:03:35.582Z,2.70
2019-06-07T11:06:14.769Z,3.15
2019-06-07T11:08:44.960Z,3.33
2019-06-07T11:11:15.150Z,3.37
2019-06-07T11:13:45.407Z,3.17
2019-06-07T11:16:15.843Z,3.37
2019-06-07T11:18:46.060Z,3.12
2019-06-07T11:21:25.279Z,3.40
2019-06-07T11:23:55.480Z,3.47
2019-06-07T11:26:25.727Z,3.80
2019-06-07T11:28:56.003Z,3.50
2019-06-07T11:31:26.348Z,3.27
2019-06-07T11:33:56.691Z,3.27
2019-06-07T11:36:30.721Z,3.20
2019-06-07T11:39:01.195Z,3.37
2019-06-07T11:41:33.032Z,3.33
2019-06-07T11:44:03.308Z,4.12
2019-06-07T11:46:33.670Z,3.17
2019-06-07T11:49:04.050Z,3.92
2019-06-07T11:51:34.331Z,3.85
2019-06-07T11:54:04.719Z,3.22
2019-06-07T11:56:34.940Z,3.30
2019-06-07T11:59:05.120Z,3.67
2019-06-07T12:01:37.298Z,3.77
2019-06-07T12:04:07.442Z,3.55
2019-06-07T12:07:00.096Z,3.20
2019-06-07T12:09:30.470Z,3.85
2019-06-07T12:12:00.735Z,3.50
2019-06-07T12:14:30.936Z,2.85
2019-06-07T12:19:32.379Z,3.30
2019-06-07T12:22:02.626Z,3.17
2019-06-07T12:24:32.823Z,2.83
2019-06-07T12:27:03.090Z,3.05
2019-06-07T12:29:34.005Z,3.40
2019-06-07T12:34:36.142Z,2.62
2019-06-07T12:37:06.394Z,3.20
2019-06-07T12:39:36.575Z,2.92
2019-06-07T12:42:06.915Z,3.27
2019-06-07T12:44:37.155Z,3.80
2019-06-07T12:47:07.347Z,3.05
2019-06-07T12:49:37.531Z,2.75
2019-06-07T12:52:07.745Z,2.55
2019-06-07T12:54:37.947Z,2.83
2019-06-07T12:57:08.215Z,2.60
2019-06-07T12:59:38.538Z,3.00
2019-06-07T13:02:08.759Z,3.00
2019-06-07T13:04:40.656Z,2.80
2019-06-07T13:07:17.976Z,2.50
2019-06-07T13:09:48.391Z,2.55
2019-06-07T13:12:19.673Z,2.13
2019-06-07T13:14:50.199Z,2.20
2019-06-07T13:17:20.497Z,2.00
2019-06-07T13:22:27.017Z,2.58
2019-06-07T13:25:01.512Z,2.95
2019-06-07T13:27:33.779Z,2.87
2019-06-07T13:32:36.538Z,2.27
2019-06-07T13:35:07.516Z,2.33
2019-06-07T13:37:37.822Z,2.22
2019-06-07T13:40:08.086Z,2.37
2019-06-07T13:42:38.269Z,2.33
2019-06-07T13:45:28.113Z,2.10
2019-06-07T13:47:58.390Z,2.25
2019-06-07T13:50:28.827Z,2.22
2019-06-07T13:52:59.299Z,2.20
2019-06-07T13:55:29.563Z,2.17
2019-06-07T13:57:59.751Z,2.55
2019-06-07T14:00:30.216Z,2.30
2019-06-07T14:03:00.452Z,2.17
2019-06-07T14:05:30.634Z,2.50
2019-06-07T14:08:00.812Z,2.00
2019-06-07T14:10:31.030Z,2.55
2019-06-07T14:13:01.261Z,2.27
2019-06-07T14:15:34.414Z,2.50
2019-06-07T14:18:04.586Z,2.25
2019-06-07T14:20:34.939Z,2.37
2019-06-07T14:23:06.412Z,2.30
2019-06-07T14:25:36.622Z,2.25
2019-06-07T14:28:11.562Z,2.10
2019-06-07T14:30:38.885Z,2.40
2019-06-07T14:33:09.059Z,2.35
2019-06-07T14:35:39.259Z,2.42
2019-06-07T14:38:09.700Z,2.40
2019-06-07T14:40:39.898Z,2.37
2019-06-07T14:43:10.159Z,2.50
2019-06-07T14:45:40.395Z,2.70
2019-06-07T14:48:10.724Z,2.40
2019-06-07T14:50:40.981Z,2.12
2019-06-07T14:53:11.239Z,2.13
2019-06-07T14:55:41.431Z,2.40
2019-06-07T14:58:11.626Z,2.08
2019-06-07T15:00:43.364Z,2.00
2019-06-07T15:03:13.542Z,2.10
2019-06-07T15:05:43.819Z,1.70
2019-06-07T15:08:14.160Z,2.03
2019-06-07T15:10:44.331Z,1.65
2019-06-07T15:13:14.535Z,1.50
2019-06-07T15:15:45.502Z,1.95
2019-06-07T15:18:15.873Z,1.77
2019-06-07T15:20:46.110Z,1.60
2019-06-07T15:23:16.334Z,1.52
2019-06-07T15:25:48.226Z,1.53
2019-06-07T15:28:18.426Z,1.50
2019-06-07T15:30:48.622Z,1.35
2019-06-07T15:33:18.917Z,1.90
2019-06-07T15:35:49.122Z,1.50
2019-06-07T15:38:19.523Z,1.70
2019-06-07T15:40:49.717Z,1.70
2019-06-07T15:43:19.912Z,1.87
2019-06-07T15:45:50.102Z,2.17
2019-06-07T15:48:20.291Z,1.90
2019-06-07T15:50:50.492Z,2.20
2019-06-07T15:53:20.710Z,1.85
2019-06-07T15:55:50.978Z,1.82
2019-06-07T15:58:21.476Z,2.05
2019-06-07T16:00:51.667Z,2.08
2019-06-07T16:03:21.923Z,2.33
2019-06-07T16:05:52.434Z,2.62
2019-06-07T16:08:22.704Z,2.67
2019-06-07T16:10:52.878Z,2.00
2019-06-07T16:13:23.089Z,2.33
2019-06-07T16:15:53.254Z,1.90
2019-06-07T16:18:23.493Z,1.92
2019-06-07T16:20:53.735Z,2.20
2019-06-07T16:23:24.003Z,2.00
2019-06-07T16:25:54.265Z,1.85
2019-06-07T16:28:24.459Z,1.75
2019-06-07T16:30:54.655Z,1.37
2019-06-07T16:33:24.911Z,1.67
2019-06-07T16:35:55.174Z,1.17
2019-06-07T16:38:25.363Z,1.32
2019-06-07T16:40:55.631Z,1.15
2019-06-07T16:43:25.878Z,1.27
2019-06-07T16:45:56.078Z,0.78
2019-06-07T16:48:26.266Z,0.80
2019-06-07T16:50:56.454Z,0.90
2019-06-07T16:54:00.035Z,0.93
2019-06-07T16:56:30.240Z,0.65
2019-06-07T16:59:00.598Z,0.90
2019-06-07T17:01:30.792Z,0.70
2019-06-07T17:04:01.000Z,0.80
2019-06-07T17:06:31.279Z,0.50
2019-06-07T17:09:01.475Z,0.68
2019-06-07T17:11:32.739Z,0.60
2019-06-07T17:14:03.076Z,0.57
2019-06-07T17:16:33.398Z,0.97
2019-06-07T17:19:03.616Z,0.57
2019-06-07T17:21:33.887Z,0.68
2019-06-07T17:24:05.144Z,0.60
2019-06-07T17:26:35.338Z,0.68
2019-06-07T17:29:05.523Z,0.60
2019-06-07T17:31:35.720Z,0.60
2019-06-07T17:34:05.901Z,0.50
2019-06-07T17:36:36.102Z,0.50
2019-06-07T17:39:08.123Z,0.40
2019-06-07T17:41:52.413Z,0.50
2019-06-07T17:44:10.272Z,0.60
2019-06-07T17:46:41.592Z,0.60
2019-06-07T17:49:12.141Z,0.80
2019-06-07T17:51:44.021Z,0.68
2019-06-07T17:54:14.423Z,0.80
2019-06-07T17:56:46.187Z,0.75
2019-06-07T17:59:16.538Z,0.82
2019-06-07T18:02:06.754Z,0.50
2019-06-07T18:04:18.795Z,0.70
2019-06-07T18:06:49.882Z,0.60
2019-06-07T18:09:21.245Z,0.53
2019-06-07T18:14:22.452Z,0.50
2019-06-07T18:16:52.817Z,0.50
2019-06-07T18:19:23.121Z,0.72
2019-06-07T18:21:57.527Z,0.60
2019-06-07T18:24:25.320Z,0.50
2019-06-07T18:26:55.561Z,0.40
2019-06-07T18:29:25.828Z,0.40
2019-06-07T18:31:57.085Z,0.47
2019-06-07T18:34:27.297Z,0.40
2019-06-07T18:36:57.546Z,0.40
2019-06-07T18:39:27.799Z,0.42
2019-06-07T18:41:57.976Z,0.60
2019-06-07T18:44:28.210Z,0.60
2019-06-07T18:46:58.540Z,0.60
2019-06-07T18:49:28.727Z,0.50
2019-06-07T18:52:12.579Z,0.68
2019-06-07T18:54:42.773Z,0.70
2019-06-07T18:57:12.958Z,0.50
2019-06-07T18:59:43.160Z,0.50
2019-06-07T19:02:13.413Z,0.50
2019-06-07T19:04:43.677Z,0.60
2019-06-07T19:07:13.871Z,0.40
2019-06-07T19:09:44.093Z,0.72
2019-06-07T19:12:14.261Z,0.65
2019-06-07T19:14:44.454Z,0.40
2019-06-07T19:17:14.657Z,0.62
2019-06-07T19:19:45.858Z,0.65
2019-06-07T19:22:16.114Z,0.62
2019-06-07T19:27:16.824Z,0.60
2019-06-07T19:29:47.089Z,0.50
2019-06-07T19:32:17.438Z,0.40
2019-06-07T19:34:47.617Z,0.70
2019-06-07T19:37:17.817Z,0.50
2019-06-07T19:39:48.003Z,0.65
2019-06-07T19:42:18.211Z,0.62
2019-06-07T19:44:54.308Z,0.45
2019-06-07T19:47:20.359Z,0.40
2019-06-07T19:49:50.536Z,0.50
2019-06-07T19:52:20.799Z,0.47
2019-06-07T19:54:51.065Z,0.78
2019-06-07T19:57:21.284Z,0.47
2019-06-07T19:59:51.474Z,0.55
2019-06-07T20:02:21.650Z,0.42
2019-06-07T20:04:51.951Z,0.60
2019-06-07T20:07:22.133Z,0.70
2019-06-07T20:09:52.332Z,0.70
2019-06-07T20:12:22.862Z,0.60
2019-06-07T20:14:55.350Z,0.50
2019-06-07T20:17:25.279Z,0.72
2019-06-07T20:19:56.626Z,0.60
2019-06-07T20:22:26.854Z,0.50
2019-06-07T20:24:57.106Z,0.60
2019-06-07T20:27:27.483Z,0.50
2019-06-07T20:29:58.185Z,0.60
2019-06-07T20:32:28.784Z,0.55
2019-06-07T20:34:59.651Z,0.60
2019-06-07T20:37:29.940Z,0.60
2019-06-07T20:40:11.376Z,0.80
2019-06-07T20:42:32.026Z,0.53
2019-06-07T20:45:02.243Z,0.50
2019-06-07T20:47:33.460Z,0.53
2019-06-07T20:50:08.476Z,0.80
2019-06-07T20:52:39.317Z,0.70
2019-06-07T20:55:09.850Z,0.60
2019-06-07T20:57:40.271Z,0.60
2019-06-07T21:00:20.645Z,1.00
2019-06-07T21:02:42.484Z,0.70
2019-06-07T21:05:12.690Z,0.45
2019-06-07T21:07:42.872Z,0.70
2019-06-07T21:10:13.071Z,0.55
2019-06-07T21:12:43.247Z,0.50
2019-06-07T21:15:14.710Z,0.65
2019-06-07T21:17:45.422Z,0.68
2019-06-07T21:20:16.009Z,0.60
2019-06-07T21:22:46.233Z,0.70
2019-06-07T21:25:16.510Z,0.60
2019-06-07T21:27:48.344Z,0.50
2019-06-07T21:30:18.586Z,0.57
2019-06-07T21:32:48.967Z,0.75
2019-06-07T21:35:19.156Z,0.88
2019-06-07T21:37:49.349Z,0.88
2019-06-07T21:40:19.605Z,0.70
2019-06-07T21:42:49.861Z,0.70
2019-06-07T21:45:20.143Z,0.80
2019-06-07T21:47:50.400Z,1.00
2019-06-07T21:50:20.576Z,0.68
2019-06-07T21:52:50.767Z,0.68
2019-06-07T21:55:20.968Z,0.75
2019-06-07T21:57:51.230Z,0.78
2019-06-07T22:00:27.326Z,0.70
2019-06-07T22:02:59.147Z,0.70
2019-06-07T22:05:29.324Z,0.90
2019-06-07T22:07:59.523Z,0.70
2019-06-07T22:10:29.773Z,0.57
2019-06-07T22:12:59.982Z,0.53
2019-06-07T22:15:35.331Z,0.90
2019-06-07T22:18:02.141Z,0.70
2019-06-07T22:20:32.326Z,0.78
2019-06-07T22:23:02.546Z,0.68
2019-06-07T22:25:32.726Z,0.62
2019-06-07T22:28:02.981Z,0.70
2019-06-07T22:30:33.174Z,0.65
2019-06-07T22:33:03.366Z,0.62
2019-06-07T22:35:33.637Z,0.70
2019-06-07T22:38:03.909Z,0.60
2019-06-07T22:40:40.455Z,0.60
2019-06-07T22:43:11.805Z,0.62
2019-06-07T22:45:42.220Z,0.60
2019-06-07T22:48:13.415Z,1.15
2019-06-07T22:50:43.706Z,0.50
2019-06-07T22:53:13.890Z,0.50
2019-06-07T22:55:46.354Z,0.65
2019-06-07T22:58:16.620Z,0.70
2019-06-07T23:00:46.878Z,0.70
2019-06-07T23:03:17.055Z,0.80
2019-06-07T23:05:47.254Z,0.57
2019-06-07T23:08:17.430Z,0.57
2019-06-07T23:10:47.695Z,0.50
2019-06-07T23:13:17.938Z,0.62
2019-06-07T23:15:48.155Z,0.50
2019-06-07T23:18:18.322Z,0.50
2019-06-07T23:20:48.526Z,0.55
2019-06-07T23:23:19.953Z,0.60
2019-06-07T23:25:50.275Z,0.62
2019-06-07T23:28:20.728Z,0.82
2019-06-07T23:30:50.939Z,0.55
2019-06-07T23:35:51.623Z,0.50
2019-06-07T23:38:21.801Z,0.60
2019-06-07T23:41:33.753Z,0.70
2019-06-07T23:44:03.949Z,0.70
2019-06-07T23:49:04.638Z,0.88
2019-06-07T23:51:34.843Z,0.53
2019-06-07T23:54:05.033Z,0.68
2019-06-07T23:56:35.299Z,0.85
2019-06-07T23:59:05.494Z,0.70
